Time;durP1;ratioP1;P1;durP2;ratioP2;P2;SDS_P1;SDS_P2;PMS_P1;PMS_P2;Temp;Humidity;BMP_temperature;BMP_pressure;BME280_temperature;BME280_humidity;BME280_pressure;Samples;Min_cycle;Max_cycle;Signal;HPM_P1;HPM_P2
2022/09/28 00:01:12;;;;;;;6.47;5.85;;;10.40;99.90;;;;;;5046097;28;20144;-35
2022/09/28 00:03:38;;;;;;;8.00;6.30;;;10.30;99.90;;;;;;5045841;28;20027;-36
2022/09/28 00:06:06;;;;;;;7.25;6.55;;;10.30;99.90;;;;;;5046319;28;20017;-36
2022/09/28 00:08:33;;;;;;;7.45;6.53;;;10.30;99.90;;;;;;5045380;28;20021;-36
2022/09/28 00:11:00;;;;;;;7.18;6.47;;;10.30;99.90;;;;;;5046373;28;20029;-34
2022/09/28 00:13:26;;;;;;;7.63;6.65;;;10.20;99.90;;;;;;5045277;28;20396;-34
2022/09/28 00:16:06;;;;;;;8.27;7.43;;;10.20;99.90;;;;;;5045986;28;20120;-34
2022/09/28 00:18:32;;;;;;;9.13;7.32;;;10.30;99.90;;;;;;5043770;28;20076;-34
2022/09/28 00:21:12;;;;;;;9.32;8.30;;;10.20;99.90;;;;;;5045912;28;20293;-35
2022/09/28 00:24:11;;;;;;;9.93;8.52;;;10.20;99.90;;;;;;5045474;28;20567;-36
2022/09/28 00:26:25;;;;;;;10.02;8.27;;;10.10;99.90;;;;;;5044366;28;20029;-37
2022/09/28 00:28:52;;;;;;;8.68;7.78;;;10.00;99.90;;;;;;5045980;28;20185;-35
2022/09/28 00:31:18;;;;;;;9.43;8.10;;;9.90;99.90;;;;;;5044651;28;20033;-35
2022/09/28 00:33:44;;;;;;;9.45;7.63;;;9.90;99.90;;;;;;5045122;28;20407;-37
2022/09/28 00:36:09;;;;;;;8.80;7.93;;;9.80;99.90;;;;;;5045183;28;20495;-37
2022/09/28 00:38:35;;;;;;;9.13;8.23;;;9.70;99.90;;;;;;5044759;28;20029;-36
2022/09/28 00:41:01;;;;;;;11.90;8.45;;;9.60;99.90;;;;;;5045669;28;20025;-35
2022/09/28 00:43:26;;;;;;;8.68;7.78;;;9.60;99.90;;;;;;5044999;28;20140;-35
2022/09/28 00:46:02;;;;;;;10.45;8.23;;;9.60;99.90;;;;;;5045019;28;20029;-36
2022/09/28 00:48:32;;;;;;;9.23;8.32;;;9.50;99.90;;;;;;5045464;28;20063;-35
2022/09/28 00:51:01;;;;;;;9.02;8.13;;;9.50;99.90;;;;;;5045244;28;20480;-35
2022/09/28 00:53:30;;;;;;;9.57;8.18;;;9.50;99.90;;;;;;5045316;28;20497;-36
2022/09/28 00:56:02;;;;;;;10.60;7.57;;;9.50;99.90;;;;;;5045988;28;20029;-35
2022/09/28 00:58:32;;;;;;;8.48;7.60;;;9.60;99.90;;;;;;5043539;28;20031;-36
2022/09/28 01:00:59;;;;;;;7.82;7.03;;;9.60;99.90;;;;;;5045245;28;20049;-35
2022/09/28 01:03:28;;;;;;;7.85;7.05;;;9.70;99.90;;;;;;5044775;28;20052;-36
2022/09/28 01:05:56;;;;;;;7.38;6.68;;;9.70;99.90;;;;;;5044877;28;20074;-36
2022/09/28 01:08:26;;;;;;;7.20;6.50;;;9.70;99.90;;;;;;5045201;28;20024;-34
2022/09/28 01:10:52;;;;;;;7.28;6.65;;;9.70;99.90;;;;;;5044849;28;20365;-35
2022/09/28 01:13:19;;;;;;;7.88;7.15;;;9.70;99.90;;;;;;5043562;28;20025;-34
2022/09/28 01:16:10;;;;;;;8.73;6.47;;;9.60;99.90;;;;;;5045613;28;20053;-34
2022/09/28 01:19:00;;;;;;;8.27;7.45;;;9.60;99.90;;;;;;5044931;28;20029;-35
2022/09/28 01:21:27;;;;;;;7.03;6.30;;;9.60;99.90;;;;;;5044383;28;20021;-35
2022/09/28 01:24:04;;;;;;;10.40;7.47;;;9.60;99.90;;;;;;5044592;28;20017;-35
2022/09/28 01:27:10;;;;;;;8.88;7.32;;;9.60;99.90;;;;;;5043820;28;20162;-36
2022/09/28 01:29:47;;;;;;;8.18;7.38;;;9.60;99.90;;;;;;5025818;28;20048;-36
2022/09/28 01:32:54;;;;;;;8.57;7.45;;;9.50;99.90;;;;;;5044556;28;20025;-34
2022/09/28 01:35:22;;;;;;;8.15;6.85;;;9.50;99.90;;;;;;5044502;28;20036;-36
2022/09/28 01:38:16;;;;;;;8.43;7.55;;;9.40;99.90;;;;;;5044780;28;20066;-36
2022/09/28 01:40:43;;;;;;;8.25;6.70;;;9.40;99.90;;;;;;5043900;28;20040;-34
2022/09/28 01:43:15;;;;;;;8.02;7.13;;;9.30;99.90;;;;;;5044215;28;20056;-35
2022/09/28 01:45:47;;;;;;;6.93;6.22;;;9.30;99.90;;;;;;5044675;28;20036;-35
2022/09/28 01:48:18;;;;;;;7.95;6.93;;;9.20;99.90;;;;;;5043010;28;20491;-35
2022/09/28 01:50:47;;;;;;;12.30;6.80;;;9.20;99.90;;;;;;5044383;28;20088;-34
2022/09/28 01:53:15;;;;;;;6.50;5.82;;;9.20;99.90;;;;;;5044378;28;20036;-36
2022/09/28 01:55:46;;;;;;;7.55;6.85;;;9.20;99.90;;;;;;5043412;28;20044;-35
2022/09/28 01:58:23;;;;;;;7.82;7.03;;;9.10;99.90;;;;;;5044625;28;20496;-36
2022/09/28 02:00:56;;;;;;;7.65;6.78;;;9.10;99.90;;;;;;5044828;28;20025;-36
2022/09/28 02:03:28;;;;;;;9.10;6.82;;;9.10;99.90;;;;;;5044155;28;20025;-36
2022/09/28 02:06:00;;;;;;;8.10;7.30;;;9.10;99.90;;;;;;5044909;28;20478;-35
2022/09/28 02:08:32;;;;;;;8.48;6.88;;;9.10;99.90;;;;;;5044414;28;20028;-36
2022/09/28 02:11:16;;;;;;;7.35;6.65;;;9.10;99.90;;;;;;5044165;28;20083;-36
2022/09/28 02:14:08;;;;;;;7.63;6.93;;;9.10;99.90;;;;;;5044422;28;20075;-35
2022/09/28 02:16:39;;;;;;;8.65;6.82;;;9.10;99.90;;;;;;5042316;28;20045;-35
2022/09/28 02:19:10;;;;;;;9.02;7.57;;;9.20;99.90;;;;;;5044668;28;20104;-34
2022/09/28 02:21:56;;;;;;;8.98;8.07;;;9.20;99.90;;;;;;5044088;28;20053;-35
2022/09/28 02:24:23;;;;;;;8.65;7.43;;;9.20;99.90;;;;;;5023517;28;20037;-34
2022/09/28 02:26:50;;;;;;;8.38;7.45;;;9.20;99.90;;;;;;5039213;28;20028;-35
2022/09/28 02:29:16;;;;;;;8.02;7.22;;;9.20;99.90;;;;;;5043004;28;20024;-35
2022/09/28 02:31:42;;;;;;;7.85;7.05;;;9.30;99.90;;;;;;5044938;28;20385;-36
2022/09/28 02:34:08;;;;;;;9.77;7.80;;;9.30;99.90;;;;;;5043831;28;20147;-35
2022/09/28 02:36:34;;;;;;;8.10;7.15;;;9.40;99.90;;;;;;5042761;28;20028;-35
2022/09/28 02:39:01;;;;;;;9.40;7.80;;;9.40;99.90;;;;;;5044610;28;20577;-35
2022/09/28 02:41:45;;;;;;;8.10;7.30;;;9.40;99.90;;;;;;5043513;28;20048;-36
2022/09/28 02:44:39;;;;;;;7.80;7.10;;;9.40;99.90;;;;;;5042773;28;20029;-34
2022/09/28 02:47:18;;;;;;;9.43;7.35;;;9.50;99.90;;;;;;5043753;28;20017;-34
2022/09/28 02:49:53;;;;;;;7.75;7.03;;;9.50;99.90;;;;;;5047776;28;20039;-36
2022/09/28 02:52:51;;;;;;;8.93;8.00;;;9.50;99.90;;;;;;5046209;28;20029;-36
2022/09/28 02:55:55;;;;;;;10.02;8.30;;;9.60;99.90;;;;;;5047050;28;20032;-35
2022/09/28 02:58:36;;;;;;;7.72;6.97;;;9.50;99.90;;;;;;5046234;28;20049;-36
2022/09/28 03:01:12;;;;;;;8.90;7.95;;;9.50;99.90;;;;;;5047701;28;20563;-34
2022/09/28 03:03:49;;;;;;;8.30;7.07;;;9.50;99.90;;;;;;5047368;28;20452;-36
2022/09/28 03:06:26;;;;;;;11.18;7.43;;;9.50;99.90;;;;;;5046411;28;20025;-34
2022/09/28 03:09:03;;;;;;;8.00;7.20;;;9.50;99.90;;;;;;5046637;28;20025;-34
2022/09/28 03:11:52;;;;;;;8.20;7.40;;;9.60;99.90;;;;;;5046457;28;20116;-35
2022/09/28 03:14:18;;;;;;;8.60;7.70;;;9.60;99.90;;;;;;5047104;28;20025;-35
2022/09/28 03:16:45;;;;;;;8.35;7.55;;;9.60;99.90;;;;;;5047697;28;20403;-35
2022/09/28 03:19:12;;;;;;;7.95;7.18;;;9.60;99.90;;;;;;5046004;28;20094;-35
2022/09/28 03:21:38;;;;;;;8.80;7.50;;;9.70;99.90;;;;;;5047410;28;20144;-36
2022/09/28 03:24:09;;;;;;;8.38;7.53;;;9.70;99.90;;;;;;5046413;28;20120;-36
2022/09/28 03:26:36;;;;;;;8.50;7.70;;;9.70;99.90;;;;;;5047113;28;20043;-35
2022/09/28 03:29:02;;;;;;;8.07;7.20;;;9.70;99.90;;;;;;5047118;28;20350;-36
2022/09/28 03:31:28;;;;;;;9.15;8.00;;;9.70;99.90;;;;;;5046604;28;20033;-37
2022/09/28 03:33:54;;;;;;;9.27;8.27;;;9.70;99.90;;;;;;5044896;28;20353;-35
2022/09/28 03:36:20;;;;;;;9.02;7.60;;;9.70;99.90;;;;;;5046106;28;20032;-35
2022/09/28 03:38:45;;;;;;;8.60;7.32;;;9.70;99.90;;;;;;5047103;28;20585;-34
2022/09/28 03:41:11;;;;;;;6.90;6.20;;;9.70;99.90;;;;;;5046059;28;20465;-34
2022/09/28 03:43:36;;;;;;;6.82;6.10;;;9.70;99.90;;;;;;5046990;28;20017;-36
2022/09/28 03:46:02;;;;;;;7.07;6.38;;;9.70;99.90;;;;;;5046985;28;20035;-35
2022/09/28 03:48:31;;;;;;;7.90;6.72;;;9.70;99.90;;;;;;5045263;28;20025;-34
2022/09/28 03:51:03;;;;;;;6.57;5.97;;;9.70;99.90;;;;;;5046797;28;20087;-34
2022/09/28 03:53:29;;;;;;;5.93;5.32;;;9.70;99.90;;;;;;5045615;28;20012;-34
2022/09/28 03:55:54;;;;;;;6.35;5.72;;;9.70;99.90;;;;;;5046588;28;20384;-35
2022/09/28 03:58:21;;;;;;;6.95;5.25;;;9.70;99.90;;;;;;5046694;28;20036;-35
2022/09/28 04:00:48;;;;;;;5.65;4.70;;;9.70;99.90;;;;;;5045237;28;20056;-35
2022/09/28 04:03:14;;;;;;;5.95;5.35;;;9.70;99.90;;;;;;5046460;28;20045;-36
2022/09/28 04:05:48;;;;;;;6.57;4.80;;;9.70;99.90;;;;;;5046180;28;20476;-35
2022/09/28 04:08:14;;;;;;;5.57;5.05;;;9.70;99.90;;;;;;5045842;28;20112;-35
2022/09/28 04:10:39;;;;;;;6.88;5.30;;;9.70;99.90;;;;;;5046024;28;20463;-35
2022/09/28 04:13:05;;;;;;;5.53;5.03;;;9.70;99.90;;;;;;5046009;28;20480;-35
2022/09/28 04:15:30;;;;;;;5.00;4.50;;;9.70;99.90;;;;;;5045764;28;20035;-35
2022/09/28 04:17:56;;;;;;;4.75;4.28;;;9.70;99.90;;;;;;5046003;28;20492;-36
2022/09/28 04:20:21;;;;;;;6.00;5.32;;;9.70;99.90;;;;;;5045450;28;20119;-34
2022/09/28 04:22:47;;;;;;;5.90;5.00;;;9.70;99.90;;;;;;5045111;28;20021;-34
2022/09/28 04:25:12;;;;;;;6.95;5.03;;;9.60;99.90;;;;;;5045179;28;20116;-34
2022/09/28 04:30:23;;;;;;;4.60;4.15;;;9.60;99.90;;;;;;5044752;28;20102;-36
2022/09/28 04:32:49;;;;;;;4.53;4.13;;;9.60;99.90;;;;;;5045830;28;20486;-35
2022/09/28 04:35:14;;;;;;;5.28;4.13;;;9.50;99.90;;;;;;5044888;28;20029;-34
2022/09/28 04:37:40;;;;;;;6.35;4.97;;;9.50;99.90;;;;;;5045121;28;20494;-35
2022/09/28 04:40:06;;;;;;;6.93;4.45;;;9.40;99.90;;;;;;5045461;28;20029;-34
2022/09/28 04:42:32;;;;;;;4.93;4.25;;;9.30;99.90;;;;;;5045604;28;20025;-35
2022/09/28 04:44:59;;;;;;;5.82;4.63;;;9.30;99.90;;;;;;5045397;28;20029;-35
2022/09/28 04:47:25;;;;;;;5.10;4.60;;;9.20;99.90;;;;;;5044960;28;20032;-34
2022/09/28 04:49:51;;;;;;;6.22;4.50;;;9.20;99.90;;;;;;5044098;28;20033;-35
2022/09/28 04:52:17;;;;;;;4.55;4.10;;;9.10;99.90;;;;;;5044419;28;20025;-35
2022/09/28 04:54:42;;;;;;;4.35;3.95;;;9.10;99.90;;;;;;5045607;28;20028;-34
2022/09/28 04:57:08;;;;;;;4.47;3.97;;;9.00;99.90;;;;;;5044002;28;20033;-35
2022/09/28 04:59:35;;;;;;;5.18;4.15;;;9.00;99.90;;;;;;5045780;28;20025;-34
2022/09/28 05:02:03;;;;;;;5.85;4.63;;;8.90;99.90;;;;;;5045422;28;20620;-34
2022/09/28 05:04:29;;;;;;;6.22;4.53;;;8.90;99.90;;;;;;5044001;28;20025;-34
2022/09/28 05:06:55;;;;;;;5.95;4.55;;;8.80;99.90;;;;;;5044908;28;20488;-35
2022/09/28 05:09:21;;;;;;;5.25;4.75;;;8.80;99.90;;;;;;5045415;28;20029;-34
2022/09/28 05:11:51;;;;;;;5.28;4.53;;;8.80;99.90;;;;;;5043830;28;20063;-34
2022/09/28 05:14:23;;;;;;;5.28;4.55;;;8.80;99.90;;;;;;5044509;28;20062;-34
2022/09/28 05:16:49;;;;;;;5.30;4.83;;;8.70;99.90;;;;;;5045631;28;20036;-35
2022/09/28 05:19:14;;;;;;;6.60;4.65;;;8.70;99.90;;;;;;5044243;28;20029;-35
2022/09/28 05:21:44;;;;;;;5.20;4.70;;;8.60;99.90;;;;;;5045394;28;20063;-36
2022/09/28 05:24:10;;;;;;;5.43;4.88;;;8.60;99.90;;;;;;5044630;28;20428;-35
2022/09/28 05:26:35;;;;;;;4.43;4.03;;;8.60;99.90;;;;;;5044246;28;20025;-36
2022/09/28 05:29:01;;;;;;;5.20;4.70;;;8.60;99.90;;;;;;5045010;28;20029;-35
2022/09/28 05:31:27;;;;;;;6.10;4.25;;;8.60;99.90;;;;;;5044482;28;20958;-36
2022/09/28 05:33:52;;;;;;;4.97;4.18;;;8.60;99.90;;;;;;5044118;28;20025;-35
2022/09/28 05:36:18;;;;;;;4.80;4.30;;;8.60;99.90;;;;;;5044402;28;20060;-36
2022/09/28 05:38:44;;;;;;;4.47;4.07;;;8.60;99.90;;;;;;5044777;28;20025;-35
2022/09/28 05:41:10;;;;;;;5.47;4.85;;;8.60;99.90;;;;;;5043786;28;20344;-35
2022/09/28 05:43:37;;;;;;;4.97;4.40;;;8.50;99.90;;;;;;5044783;28;20433;-35
2022/09/28 05:46:03;;;;;;;4.90;4.40;;;8.50;99.90;;;;;;5043689;28;20033;-34
2022/09/28 05:48:28;;;;;;;5.90;5.35;;;8.50;99.90;;;;;;5049428;28;20077;-36
2022/09/28 05:50:54;;;;;;;4.78;4.38;;;8.50;99.90;;;;;;5045152;28;20075;-35
2022/09/28 05:53:20;;;;;;;4.80;4.15;;;8.50;99.90;;;;;;5043048;28;20111;-35
2022/09/28 05:55:46;;;;;;;4.70;4.30;;;8.50;99.90;;;;;;5041938;28;20461;-35
2022/09/28 05:58:12;;;;;;;6.65;5.20;;;8.40;99.90;;;;;;5042862;28;20024;-35
2022/09/28 06:00:37;;;;;;;5.25;4.30;;;8.40;99.90;;;;;;5042604;28;20028;-35
2022/09/28 06:03:09;;;;;;;5.40;4.90;;;8.40;99.90;;;;;;5043750;28;20086;-35
2022/09/28 06:05:36;;;;;;;4.95;4.50;;;8.40;99.90;;;;;;5044324;28;20029;-36
2022/09/28 06:08:03;;;;;;;4.95;3.90;;;8.40;99.90;;;;;;5043011;28;20087;-35
2022/09/28 06:10:30;;;;;;;4.53;4.13;;;8.40;99.90;;;;;;5043129;28;20099;-35
2022/09/28 06:12:56;;;;;;;4.80;4.40;;;8.30;99.90;;;;;;5044004;28;20021;-35
2022/09/28 06:15:23;;;;;;;5.10;4.60;;;8.40;99.90;;;;;;5042281;28;20104;-37
2022/09/28 06:18:02;;;;;;;6.85;4.20;;;8.30;99.90;;;;;;5043810;28;20108;-36
2022/09/28 06:20:32;;;;;;;5.07;4.57;;;8.30;99.90;;;;;;5039927;28;20021;-35
2022/09/28 06:22:58;;;;;;;4.55;4.15;;;8.30;99.90;;;;;;5043523;28;20468;-35
2022/09/28 06:25:24;;;;;;;5.80;4.82;;;8.30;99.90;;;;;;5046542;28;20074;-35
2022/09/28 06:27:58;;;;;;;6.70;4.43;;;8.30;99.90;;;;;;5048476;28;20842;-34
2022/09/28 06:30:25;;;;;;;4.88;4.47;;;8.30;99.90;;;;;;5045809;28;20045;-36
2022/09/28 06:32:58;;;;;;;5.43;4.28;;;8.30;99.90;;;;;;5047833;28;20029;-36
2022/09/28 06:35:25;;;;;;;5.40;4.70;;;8.30;99.90;;;;;;5046080;28;20040;-36
2022/09/28 06:37:52;;;;;;;15.63;4.80;;;8.40;99.90;;;;;;5047741;28;20075;-35
2022/09/28 06:40:18;;;;;;;42.35;6.10;;;8.40;99.90;;;;;;5046404;28;20021;-36
2022/09/28 06:42:52;;;;;;;37.50;8.32;;;8.40;99.90;;;;;;5047865;28;20028;-36
2022/09/28 06:45:24;;;;;;;20.52;5.97;;;8.40;99.90;;;;;;5047581;28;20031;-35
2022/09/28 06:47:57;;;;;;;32.60;6.00;;;8.50;99.90;;;;;;5047820;28;20475;-36
2022/09/28 06:50:24;;;;;;;19.85;5.85;;;8.50;99.90;;;;;;5046360;28;20044;-34
2022/09/28 06:52:51;;;;;;;30.38;5.85;;;8.50;99.90;;;;;;5047459;28;20113;-35
2022/09/28 06:55:17;;;;;;;41.90;5.20;;;8.60;99.90;;;;;;5047138;28;20024;-35
2022/09/28 06:57:43;;;;;;;6.72;4.93;;;8.60;99.90;;;;;;5047376;28;20380;-34
2022/09/28 07:00:09;;;;;;;5.18;4.78;;;8.70;99.90;;;;;;5046884;28;20029;-34
2022/09/28 07:02:35;;;;;;;5.38;4.88;;;8.70;99.90;;;;;;5047292;28;20044;-34
2022/09/28 07:05:01;;;;;;;5.00;4.50;;;8.70;99.90;;;;;;5046972;28;20025;-34
2022/09/28 07:07:27;;;;;;;4.68;3.80;;;8.70;99.90;;;;;;5047066;28;20404;-35
2022/09/28 07:09:53;;;;;;;4.63;4.22;;;8.70;99.90;;;;;;5047382;28;20033;-35
2022/09/28 07:12:20;;;;;;;4.10;3.70;;;8.70;99.90;;;;;;5046307;28;20470;-36
2022/09/28 07:14:46;;;;;;;4.03;3.63;;;8.70;99.90;;;;;;5047404;28;20033;-34
2022/09/28 07:17:11;;;;;;;3.72;3.10;;;8.70;99.90;;;;;;5045895;28;20475;-35
2022/09/28 07:19:37;;;;;;;3.40;3.10;;;8.70;99.90;;;;;;5046217;28;20044;-36
2022/09/28 07:22:03;;;;;;;3.10;2.90;;;8.80;99.90;;;;;;5046889;28;20099;-36
2022/09/28 07:24:29;;;;;;;3.83;3.10;;;8.80;99.90;;;;;;5046178;28;20028;-36
2022/09/28 07:26:55;;;;;;;2.90;2.20;;;8.90;99.90;;;;;;5046966;28;20461;-35
2022/09/28 07:29:21;;;;;;;2.45;2.20;;;9.00;99.90;;;;;;5046091;28;20032;-35
2022/09/28 07:31:46;;;;;;;1.95;1.70;;;9.00;99.90;;;;;;5045048;28;20421;-36
2022/09/28 07:34:12;;;;;;;1.70;1.60;;;9.10;99.90;;;;;;5045303;28;20456;-36
2022/09/28 07:36:38;;;;;;;3.20;1.70;;;9.10;99.90;;;;;;5046884;28;20013;-35
2022/09/28 07:39:04;;;;;;;2.45;1.70;;;9.20;99.90;;;;;;5046533;28;20476;-34
2022/09/28 07:41:32;;;;;;;2.00;1.52;;;9.30;99.90;;;;;;5045399;28;20029;-35
2022/09/28 07:44:04;;;;;;;2.58;1.65;;;9.40;99.90;;;;;;5046917;28;20029;-36
2022/09/28 07:46:30;;;;;;;2.45;1.75;;;9.40;99.90;;;;;;5045076;28;20031;-35
2022/09/28 07:48:57;;;;;;;2.00;1.58;;;9.50;99.90;;;;;;5046671;28;20029;-35
2022/09/28 07:51:22;;;;;;;2.00;1.40;;;9.60;99.90;;;;;;5045353;28;20043;-34
2022/09/28 07:53:48;;;;;;;2.58;1.20;;;9.70;99.90;;;;;;5045616;28;20379;-34
2022/09/28 07:56:16;;;;;;;1.40;1.25;;;9.80;99.90;;;;;;5046282;28;20039;-35
2022/09/28 07:58:42;;;;;;;1.10;1.00;;;9.80;99.90;;;;;;5046402;28;20056;-36
2022/09/28 08:01:09;;;;;;;1.40;1.13;;;9.90;99.90;;;;;;5045332;28;20485;-36
2022/09/28 08:03:36;;;;;;;1.83;1.13;;;9.90;99.90;;;;;;5046526;28;20858;-35
2022/09/28 08:06:05;;;;;;;1.38;1.27;;;10.00;99.90;;;;;;5046276;28;20499;-36
2022/09/28 08:08:33;;;;;;;1.67;1.30;;;10.10;99.90;;;;;;5045264;28;20035;-34
2022/09/28 08:10:59;;;;;;;1.38;1.08;;;10.10;99.90;;;;;;5046629;28;20040;-34
2022/09/28 08:13:24;;;;;;;1.33;1.10;;;10.20;99.90;;;;;;5045420;28;20548;-35
2022/09/28 08:15:52;;;;;;;2.85;1.17;;;10.30;99.90;;;;;;5045409;28;20029;-34
2022/09/28 08:18:18;;;;;;;1.42;1.20;;;10.30;99.90;;;;;;5045237;28;20045;-35
2022/09/28 08:23:28;;;;;;;3.53;1.35;;;10.40;99.90;;;;;;5045965;28;20040;-35
2022/09/28 08:25:53;;;;;;;1.73;1.13;;;10.50;99.90;;;;;;5046435;28;20351;-37
2022/09/28 08:28:20;;;;;;;1.05;0.98;;;10.60;99.90;;;;;;5044414;28;20028;-36
2022/09/28 08:30:47;;;;;;;2.20;1.17;;;10.60;99.90;;;;;;5045586;28;20068;-36
2022/09/28 08:33:14;;;;;;;1.83;1.00;;;10.70;99.90;;;;;;5045779;28;20051;-35
2022/09/28 08:35:40;;;;;;;1.75;0.95;;;10.70;99.90;;;;;;5043751;28;20017;-35
2022/09/28 08:38:07;;;;;;;1.15;0.65;;;10.70;99.90;;;;;;5045424;28;20052;-36
2022/09/28 08:40:40;;;;;;;1.23;0.80;;;10.80;99.90;;;;;;5034704;28;20029;-36
2022/09/28 08:43:30;;;;;;;2.47;0.82;;;10.90;99.90;;;;;;5044343;28;20052;-35
2022/09/28 08:45:58;;;;;;;1.83;0.95;;;10.90;99.90;;;;;;5035248;28;20029;-34
2022/09/28 08:48:46;;;;;;;1.05;0.70;;;11.00;99.90;;;;;;5045289;28;20025;-35
2022/09/28 08:51:22;;;;;;;1.60;1.00;;;11.10;99.90;;;;;;5039899;28;20041;-34
2022/09/28 08:53:54;;;;;;;3.65;1.02;;;11.10;99.90;;;;;;5044740;28;20077;-34
2022/09/28 08:56:33;;;;;;;2.67;0.98;;;11.10;99.90;;;;;;5043585;28;20057;-34
2022/09/28 08:59:03;;;;;;;2.53;0.90;;;11.20;99.90;;;;;;5043434;28;20110;-35
2022/09/28 09:01:37;;;;;;;1.05;0.93;;;11.20;99.90;;;;;;5042718;28;20047;-35
2022/09/28 09:04:05;;;;;;;1.77;0.90;;;11.30;99.90;;;;;;5043495;28;20040;-35
2022/09/28 09:06:58;;;;;;;2.53;0.80;;;11.30;99.90;;;;;;5043721;28;20388;-35
2022/09/28 09:09:51;;;;;;;2.53;0.95;;;11.40;99.90;;;;;;5043786;28;20086;-35
2022/09/28 09:12:38;;;;;;;1.17;0.80;;;11.40;99.90;;;;;;5044151;28;20112;-34
2022/09/28 09:15:28;;;;;;;1.20;0.80;;;11.40;99.90;;;;;;5044816;28;20459;-34
2022/09/28 09:18:13;;;;;;;1.70;0.82;;;11.50;99.90;;;;;;5044666;28;20528;-34
2022/09/28 09:20:53;;;;;;;3.05;0.95;;;11.50;99.90;;;;;;5044977;28;20033;-34
2022/09/28 09:23:35;;;;;;;1.20;0.70;;;11.60;99.90;;;;;;5023623;28;20034;-34
2022/09/28 09:26:09;;;;;;;2.55;0.70;;;11.70;99.90;;;;;;5040371;28;20059;-35
2022/09/28 09:29:04;;;;;;;3.08;0.63;;;11.70;99.90;;;;;;5025540;28;20120;-35
2022/09/28 09:31:44;;;;;;;1.05;0.60;;;11.80;99.90;;;;;;5042648;28;20041;-35
2022/09/28 09:34:24;;;;;;;2.33;0.88;;;11.80;99.90;;;;;;5044417;28;20450;-35
2022/09/28 09:37:18;;;;;;;1.40;0.52;;;11.90;99.90;;;;;;5044855;28;20024;-34
2022/09/28 09:40:01;;;;;;;1.38;0.60;;;11.90;99.90;;;;;;5044684;28;20033;-34
2022/09/28 09:42:44;;;;;;;1.50;0.63;;;11.90;99.90;;;;;;5043047;28;20540;-34
2022/09/28 09:45:37;;;;;;;1.25;0.60;;;11.90;99.90;;;;;;5043380;28;20033;-34
2022/09/28 09:48:07;;;;;;;1.45;0.70;;;12.00;99.90;;;;;;5035990;28;20111;-34
2022/09/28 09:50:42;;;;;;;1.23;0.52;;;12.10;99.90;;;;;;5044635;28;20617;-35
2022/09/28 09:53:28;;;;;;;1.48;0.50;;;12.20;99.90;;;;;;5044044;28;20013;-35
2022/09/28 09:56:01;;;;;;;0.57;0.50;;;12.40;99.90;;;;;;5044642;28;20033;-34
2022/09/28 09:58:35;;;;;;;1.27;0.60;;;12.50;99.90;;;;;;5044081;28;20116;-34
2022/09/28 10:01:11;;;;;;;1.60;0.47;;;12.70;99.90;;;;;;5043838;28;20068;-34
2022/09/28 10:03:41;;;;;;;0.98;0.40;;;12.70;99.90;;;;;;5044695;28;20530;-35
2022/09/28 10:06:42;;;;;;;0.65;0.30;;;12.80;99.90;;;;;;5043980;28;20021;-35
2022/09/28 10:09:07;;;;;;;1.10;0.80;;;12.90;99.90;;;;;;5031749;28;20037;-34
2022/09/28 10:11:41;;;;;;;2.53;0.70;;;12.90;99.90;;;;;;5044397;28;20049;-35
2022/09/28 10:14:20;;;;;;;0.50;0.35;;;13.00;99.90;;;;;;5043509;28;20052;-35
2022/09/28 10:16:47;;;;;;;0.90;0.40;;;13.00;99.90;;;;;;5044385;28;20036;-34
2022/09/28 10:19:13;;;;;;;0.70;0.52;;;13.00;99.90;;;;;;5043315;28;20426;-36
2022/09/28 10:21:41;;;;;;;0.35;0.30;;;12.90;99.90;;;;;;5044297;28;20151;-37
2022/09/28 10:24:40;;;;;;;0.28;0.20;;;12.90;99.90;;;;;;5044464;28;20031;-34
2022/09/28 10:27:38;;;;;;;1.52;0.30;;;12.90;99.90;;;;;;5042871;28;20033;-35
2022/09/28 10:30:10;;;;;;;0.38;0.20;;;12.90;99.90;;;;;;5044351;28;20041;-35
2022/09/28 10:32:47;;;;;;;1.05;0.38;;;12.90;99.90;;;;;;5044204;28;20021;-36
2022/09/28 10:35:25;;;;;;;0.43;0.20;;;12.90;99.90;;;;;;5043583;28;20035;-34
2022/09/28 10:38:14;;;;;;;1.13;0.20;;;13.00;99.90;;;;;;5044087;28;20330;-37
2022/09/28 10:40:56;;;;;;;1.05;0.32;;;13.20;99.90;;;;;;5044511;28;20032;-36
2022/09/28 10:44:05;;;;;;;0.47;0.28;;;13.30;99.90;;;;;;5042879;28;20055;-34
2022/09/28 10:46:32;;;;;;;0.32;0.20;;;13.40;99.90;;;;;;5024262;28;20140;-35
2022/09/28 10:49:06;;;;;;;0.20;0.20;;;13.50;99.90;;;;;;5041914;28;20476;-34
2022/09/28 10:51:57;;;;;;;1.27;0.30;;;13.60;99.90;;;;;;5043747;28;20087;-35
2022/09/28 10:54:28;;;;;;;1.08;0.43;;;13.60;99.90;;;;;;5043550;28;20029;-34
2022/09/28 10:56:56;;;;;;;2.20;0.40;;;13.60;99.90;;;;;;5043794;28;20083;-34
2022/09/28 10:59:27;;;;;;;0.47;0.22;;;13.60;99.90;;;;;;5043583;28;20033;-36
2022/09/28 11:02:02;;;;;;;0.47;0.30;;;13.60;99.90;;;;;;5044265;28;20063;-35
2022/09/28 11:04:32;;;;;;;0.75;0.30;;;13.60;99.90;;;;;;5042654;28;20021;-35
2022/09/28 11:07:00;;;;;;;0.50;0.30;;;13.70;99.90;;;;;;5044664;28;20021;-35
2022/09/28 11:09:31;;;;;;;0.55;0.20;;;13.70;99.90;;;;;;5044174;28;20427;-34
2022/09/28 11:11:58;;;;;;;0.35;0.30;;;13.70;99.90;;;;;;5027680;28;20037;-36
2022/09/28 11:14:34;;;;;;;0.65;0.20;;;13.80;99.90;;;;;;5041653;28;20025;-36
2022/09/28 11:17:24;;;;;;;0.63;0.20;;;13.80;99.90;;;;;;5046486;28;20025;-34
2022/09/28 11:19:51;;;;;;;0.32;0.30;;;13.90;99.90;;;;;;5046668;28;20532;-34
2022/09/28 11:22:43;;;;;;;0.60;0.22;;;13.90;99.90;;;;;;5027041;28;20059;-34
2022/09/28 11:25:16;;;;;;;1.20;0.30;;;14.00;99.90;;;;;;5043534;28;20370;-37
2022/09/28 11:27:51;;;;;;;1.27;0.30;;;14.10;99.90;;;;;;5047201;28;20032;-35
2022/09/28 11:30:53;;;;;;;0.20;0.20;;;14.10;99.90;;;;;;5045952;28;20148;-36
2022/09/28 11:33:27;;;;;;;0.25;0.20;;;14.30;99.90;;;;;;5046318;28;20029;-36
2022/09/28 11:36:12;;;;;;;0.60;0.20;;;14.40;99.90;;;;;;5047177;28;20045;-36
2022/09/28 11:39:07;;;;;;;0.30;0.30;;;14.50;99.90;;;;;;5046122;28;20033;-35
2022/09/28 11:41:57;;;;;;;0.38;0.30;;;14.70;99.90;;;;;;5046373;28;21055;-35
2022/09/28 11:44:38;;;;;;;0.93;0.35;;;14.80;99.90;;;;;;5045984;28;20028;-35
2022/09/28 11:47:32;;;;;;;0.40;0.20;;;15.00;99.90;;;;;;5046574;28;20755;-35
2022/09/28 11:50:19;;;;;;;0.70;0.20;;;15.10;99.90;;;;;;5046119;28;20044;-36
2022/09/28 11:53:08;;;;;;;0.20;0.20;;;15.10;99.90;;;;;;5046250;28;20060;-36
2022/09/28 11:55:46;;;;;;;0.13;0.10;;;15.10;99.90;;;;;;5046750;28;20190;-35
2022/09/28 11:58:22;;;;;;;0.35;0.20;;;15.00;99.90;;;;;;5045969;28;20116;-35
2022/09/28 12:00:58;;;;;;;0.30;0.20;;;15.00;99.90;;;;;;5046084;28;20059;-35
2022/09/28 12:03:39;;;;;;;0.20;0.20;;;15.00;99.90;;;;;;5045779;28;20061;-35
2022/09/28 12:06:08;;;;;;;0.70;0.20;;;14.90;99.90;;;;;;5046236;28;20071;-35
2022/09/28 12:08:43;;;;;;;1.25;0.30;;;14.90;99.90;;;;;;5046518;28;20403;-34
2022/09/28 12:11:31;;;;;;;2.75;0.45;;;14.90;99.90;;;;;;5046096;28;20037;-36
2022/09/28 12:13:59;;;;;;;0.50;0.20;;;14.80;99.90;;;;;;5045864;28;20056;-35
2022/09/28 12:16:34;;;;;;;0.50;0.30;;;14.80;99.90;;;;;;5045644;28;20397;-34
2022/09/28 12:19:28;;;;;;;0.20;0.20;;;14.70;99.90;;;;;;5046569;28;20101;-35
2022/09/28 12:22:08;;;;;;;0.30;0.30;;;14.60;99.90;;;;;;5045041;28;20033;-35
2022/09/28 12:24:45;;;;;;;0.45;0.40;;;14.50;99.90;;;;;;5026601;28;20034;-35
2022/09/28 12:27:23;;;;;;;1.15;0.30;;;14.40;99.90;;;;;;5042283;28;20036;-35
2022/09/28 12:30:08;;;;;;;0.65;0.40;;;14.30;99.90;;;;;;5046322;28;20049;-36
2022/09/28 12:32:57;;;;;;;0.50;0.30;;;14.30;99.90;;;;;;5046352;28;20118;-36
2022/09/28 12:36:06;;;;;;;1.45;0.50;;;14.30;99.90;;;;;;5044912;28;20021;-36
2022/09/28 12:38:53;;;;;;;1.42;0.40;;;14.40;99.90;;;;;;5024381;28;20496;-35
2022/09/28 12:41:26;;;;;;;0.68;0.30;;;14.50;99.90;;;;;;5044810;28;20048;-35
2022/09/28 12:44:03;;;;;;;1.00;0.30;;;14.60;99.90;;;;;;5045703;28;20027;-35
2022/09/28 12:46:44;;;;;;;0.38;0.20;;;14.70;99.90;;;;;;5044897;28;20592;-35
2022/09/28 12:49:45;;;;;;;0.57;0.20;;;14.70;99.90;;;;;;5044659;28;20033;-35
2022/09/28 12:52:26;;;;;;;0.20;0.20;;;14.80;99.90;;;;;;5034163;28;20099;-35
2022/09/28 12:55:24;;;;;;;0.43;0.20;;;14.70;99.90;;;;;;5046300;28;20029;-36
2022/09/28 12:58:05;;;;;;;0.20;0.20;;;14.70;99.90;;;;;;5045431;28;20571;-35
2022/09/28 13:00:47;;;;;;;1.02;0.40;;;14.70;99.90;;;;;;5045650;28;20033;-33
2022/09/28 13:03:30;;;;;;;0.40;0.28;;;14.70;99.90;;;;;;5044614;28;20057;-34
2022/09/28 13:06:07;;;;;;;0.30;0.10;;;14.70;99.90;;;;;;5025680;28;20056;-35
2022/09/28 13:08:42;;;;;;;0.40;0.20;;;14.70;99.90;;;;;;5042951;28;20021;-35
2022/09/28 13:11:21;;;;;;;1.05;0.17;;;14.70;99.90;;;;;;5044310;28;20044;-35
2022/09/28 13:14:10;;;;;;;0.20;0.17;;;14.70;99.90;;;;;;5045455;28;20469;-36
2022/09/28 13:16:44;;;;;;;0.50;0.22;;;14.70;99.90;;;;;;5045088;28;20043;-36
2022/09/28 13:19:31;;;;;;;0.60;0.20;;;14.70;99.90;;;;;;5044418;28;20020;-37
2022/09/28 13:22:12;;;;;;;0.43;0.30;;;14.70;99.90;;;;;;5044756;28;20047;-35
2022/09/28 13:24:43;;;;;;;0.20;0.20;;;14.70;99.90;;;;;;5041160;28;20388;-36
2022/09/28 13:27:18;;;;;;;1.25;0.60;;;14.70;99.90;;;;;;5044601;28;20052;-35
2022/09/28 13:29:44;;;;;;;0.28;0.20;;;14.70;99.90;;;;;;5044886;28;20480;-34